Date,TemperatureHighF,TemperatureAvgF,TemperatureLowF,DewpointHighF,DewpointAvgF,DewpointLowF,HumidityHigh,HumidityAvg,HumidityLow,PressureMaxIn,PressureMinIn,WindSpeedMaxMPH,WindSpeedAvgMPH,GustSpeedMaxMPH,PrecipitationSumIn
2014-1-1,-0.8,-6.1,-11.3,-6.4,-11.2,-16.0,92,78,75,30.52,30.36,4,1,9,0.00
2014-1-2,6.4,-6.9,-21.2,2.9,-11.9,-99.9,92,79,76,30.54,30.02,10,3,20,0.00
2014-1-3,37.4,20.5,5.9,34.3,17.1,2.4,95,86,79,30.02,29.33,16,6,22,0.00
2014-1-4,15.2,1.6,-10.4,11.0,-4.7,-16.4,85,74,63,30.40,29.72,12,6,26,0.00
2014-1-5,-7.5,-13.9,-18.2,-13.7,-20.4,-25.3,77,72,65,30.67,30.39,9,3,14,0.00
2014-1-6,-3.8,-13.7,-21.0,-9.5,-20.0,-27.4,86,72,68,30.60,30.18,6,2,10,0.00
2014-1-7,5.5,1.5,-3.7,-0.4,-3.8,-9.4,92,78,73,30.33,30.12,2,0,5,0.00
2014-1-8,13.4,2.6,-5.5,9.7,-2.2,-11.1,85,80,76,30.41,30.05,9,3,15,0.00
2014-1-9,27.5,18.6,13.5,22.1,15.1,9.7,92,86,79,30.04,29.58,10,4,18,0.00
2014-1-10,33.4,22.3,12.3,24.0,17.1,9.4,91,81,66,29.59,29.50,6,1,10,0.00
2014-1-11,31.3,22.6,12.2,26.7,17.8,9.3,89,82,71,29.74,29.31,7,2,14,0.00
2014-1-12,41.1,36.0,24.7,32.9,29.0,20.5,88,76,63,29.64,29.28,12,5,22,0.00
2014-1-13,36.9,27.2,14.8,31.6,21.7,-99.9,92,83,76,29.72,29.42,16,3,29,0.00
2014-1-14,31.1,17.1,1.9,24.1,9.5,-99.9,93,73,56,30.27,29.73,20,8,25,0.00
2014-1-15,40.3,29.7,0.1,31.8,22.9,-4.3,84,76,68,30.22,29.58,12,7,20,0.00
2014-1-16,35.5,30.9,13.5,27.6,23.9,8.2,87,75,66,29.89,29.59,24,14,36,0.00
2014-1-17,35.2,26.1,4.2,30.4,21.1,0.7,87,81,78,30.08,29.63,10,3,14,0.00
2014-1-18,35.4,31.5,27.8,30.9,25.9,-99.9,89,81,77,30.00,29.62,17,7,25,0.00
2014-1-19,40.4,35.2,29.8,30.8,28.2,24.1,85,75,68,29.78,29.53,11,4,16,0.00
2014-1-20,32.4,30.1,20.0,27.6,25.6,15.4,85,83,81,29.94,29.77,15,5,15,0.00
2014-1-23,27.0,16.3,3.8,17.2,6.7,-3.8,70,65,62,30.71,30.01,7,4,12,0.00
2014-1-24,40.0,33.6,25.6,33.7,28.4,17.0,90,81,68,30.00,29.62,12,6,21,0.00
2014-1-25,39.9,23.5,11.3,34.2,17.0,3.0,93,76,57,30.02,29.40,15,5,21,0.00
2014-1-26,36.6,14.9,-8.3,30.8,10.6,-13.6,92,82,77,30.37,29.37,15,8,31,0.00
2014-1-27,-1.6,-8.0,-14.5,-7.9,-13.5,-19.6,79,76,74,30.56,30.37,8,3,16,0.00
2014-1-28,7.4,-3.9,-12.9,-2.8,-10.5,-18.1,78,73,60,30.50,30.08,4,1,7,0.00
2014-1-29,32.3,18.1,-3.7,21.5,11.7,-9.1,85,76,63,30.08,29.55,6,2,7,0.00
2014-1-30,14.8,4.2,-6.6,11.4,-0.9,-11.2,89,79,71,30.08,29.55,9,4,15,0.00
2014-1-31,17.1,4.5,-9.2,10.5,-0.8,-13.7,92,78,71,30.09,29.85,6,1,11,0.00
2014-2-1,12.5,4.8,-2.1,7.1,-1.8,-99.9,84,75,68,30.25,29.90,12,3,16,0.00
2014-2-2,19.3,7.4,-2.6,8.9,0.5,-8.0,84,73,62,30.23,30.09,6,2,8,0.00
2014-2-3,16.0,5.3,-3.0,7.6,-0.7,-11.3,91,76,61,30.49,30.18,6,2,16,0.00
2014-2-4,5.7,-0.3,-6.1,-1.4,-7.1,-11.8,77,72,69,30.70,30.49,5,2,7,0.00
2014-2-5,1.6,-3.5,-10.1,-5.9,-9.5,-15.1,79,75,66,30.75,30.64,8,3,13,0.00
2014-2-6,4.9,-4.4,-12.5,-2.7,-10.8,-17.7,79,74,66,30.64,30.24,10,4,15,0.00
2014-2-7,9.6,-3.0,-16.1,-1.3,-11.1,-21.9,78,68,56,30.24,30.07,6,2,11,0.00
2014-2-8,10.5,-3.5,-13.5,0.5,-9.6,-18.4,81,75,63,30.42,30.07,4,1,5,0.00
2014-2-9,2.4,-5.8,-15.6,-6.1,-11.7,-20.7,82,75,64,30.54,30.41,6,1,11,0.00
2014-2-10,2.8,-9.0,-21.5,-4.2,-14.6,-26.9,80,76,71,30.55,30.37,4,1,9,0.00
2014-2-11,25.8,10.9,-7.4,20.5,6.0,-12.2,92,81,75,30.36,29.84,8,4,17,0.00
2014-2-12,34.3,16.8,3.3,27.6,12.1,-1.5,86,81,76,30.19,29.38,10,5,19,0.00
2014-2-13,39.5,12.5,4.2,31.3,5.5,-3.1,80,73,65,29.85,29.39,17,6,23,0.00
2014-2-14,15.3,8.1,-0.5,10.6,2.2,-5.6,83,76,67,30.16,29.77,7,2,11,0.00
2014-2-15,29.2,17.0,1.8,24.6,12.7,-2.4,92,83,77,30.18,29.61,10,4,18,0.00
2014-2-16,19.7,9.5,-3.2,16.8,5.3,-7.4,92,83,77,30.16,29.67,14,5,25,0.00
2014-2-17,39.6,30.9,19.7,28.0,23.0,-99.9,92,74,59,29.81,29.49,7,3,14,0.00
2014-2-18,40.0,28.8,17.2,32.1,23.8,14.1,89,82,71,29.79,29.48,7,3,13,0.00
2014-2-19,41.3,30.8,16.8,32.4,24.9,13.1,87,79,65,29.77,29.40,7,2,11,0.00
2014-2-20,35.7,21.2,6.3,27.6,14.9,1.9,83,77,70,29.78,29.51,15,6,22,0.00
2014-2-21,21.3,10.1,0.7,9.3,2.0,-3.5,88,70,54,29.95,29.72,7,3,12,0.00
2014-2-22,18.6,9.9,3.7,7.6,1.7,-2.8,80,69,60,30.27,29.95,11,4,16,0.00
2014-2-23,16.1,7.6,-1.0,5.9,0.4,-7.0,81,72,61,30.43,30.27,9,3,13,0.00
2014-2-24,4.7,-1.6,-9.7,-1.6,-7.7,-14.7,85,75,69,30.52,30.37,6,2,11,0.00
2014-2-25,5.4,-3.1,-10.7,-3.6,-10.0,-15.5,81,72,64,30.57,30.45,9,3,20,0.00
2014-2-26,22.7,9.6,-8.9,8.5,-0.5,-14.2,79,64,50,30.44,29.91,14,6,19,0.00
2014-2-27,9.5,2.1,-10.1,0.2,-5.4,-15.8,80,70,63,30.16,29.77,10,5,14,0.00
2014-2-28,11.9,4.3,-4.1,6.5,-2.9,-11.7,83,72,60,30.42,29.73,16,6,26,0.00
2014-3-1,-4.2,-10.6,-14.3,-11.7,-21.2,-99.9,71,61,52,30.69,30.42,7,4,16,0.00
2014-3-2,4.7,-4.5,-15.7,-7.2,-15.6,-22.4,72,59,44,30.72,30.53,6,2,10,0.00
2014-3-3,9.7,4.9,-0.7,1.6,-5.0,-99.9,76,65,56,30.53,30.13,10,4,14,0.00
2014-3-4,9.3,6.0,3.2,4.5,0.5,-2.7,82,78,75,30.16,30.12,5,2,9,0.00
2014-3-5,23.0,19.1,11.6,17.4,14.6,7.7,87,82,77,30.28,29.91,10,7,21,0.00
2014-3-6,39.4,30.3,20.4,32.7,25.9,17.1,89,84,74,29.90,29.58,15,4,24,0.00
2014-3-7,26.3,15.9,7.5,22.7,10.1,3.8,87,78,69,30.34,29.79,13,6,22,0.00
2014-3-8,38.3,25.4,11.7,30.8,19.5,-99.9,87,80,70,30.33,29.88,6,2,8,0.00
2014-3-9,55.2,43.4,33.7,39.2,33.8,28.4,84,70,54,29.88,29.60,6,2,12,0.00
2014-3-10,48.7,41.1,34.7,39.4,35.0,30.9,90,79,67,29.72,29.62,6,2,14,0.00
2014-3-11,40.0,34.5,28.5,32.5,29.6,25.4,89,82,71,30.12,29.71,8,3,15,0.00
2014-3-12,52.9,40.8,27.0,34.8,30.7,24.1,91,69,47,30.09,29.86,8,2,11,0.00
2014-3-13,59.0,43.7,32.3,37.1,31.5,26.6,81,64,39,29.85,29.50,11,3,22,0.00
2014-3-14,42.8,34.4,29.1,30.8,27.8,24.8,84,77,59,29.79,29.64,10,5,14,0.00
2014-3-23,31.9,20.9,7.4,18.5,10.1,3.2,85,64,46,30.53,30.24,5,1,11,0.00
2014-3-24,30.1,22.4,10.1,21.7,13.2,5.4,88,69,40,30.35,30.23,11,5,19,0.00
2014-3-25,30.2,18.4,7.3,11.2,5.6,1.7,81,59,36,30.38,29.94,9,3,13,0.00
2014-3-26,46.0,32.5,21.2,26.2,18.0,7.6,68,55,45,29.94,29.36,10,6,22,0.00
2014-3-27,36.2,28.1,19.3,23.0,17.4,10.6,85,65,45,29.95,29.44,12,7,20,0.00
2014-3-28,31.7,22.4,14.3,19.5,13.3,8.2,80,68,54,30.20,29.96,3,1,7,0.00
2014-3-29,60.7,38.6,18.6,34.1,25.7,14.2,92,64,34,30.17,29.65,12,5,18,0.00
2014-3-30,55.5,39.5,27.6,38.4,31.5,24.8,90,74,50,29.75,29.64,13,4,25,0.00
2014-3-31,31.0,19.6,12.9,26.7,14.9,-99.9,92,85,79,30.06,29.60,18,12,33,0.00
2014-4-1,26.0,14.5,2.4,14.8,7.3,-1.8,82,73,58,30.18,30.06,10,2,19,0.00
2014-4-2,28.7,23.6,14.0,24.0,17.8,9.3,92,79,64,30.17,30.00,8,4,11,0.00
2014-4-3,34.5,30.2,26.1,30.7,26.9,23.8,93,87,78,30.03,29.93,9,4,15,0.00
2014-4-4,37.3,29.8,19.9,27.1,23.6,16.4,88,78,64,30.08,29.92,7,3,11,0.00
2014-4-5,53.7,36.9,24.4,37.8,27.6,-99.9,88,73,52,29.92,29.75,7,3,13,0.00
2014-4-6,59.5,40.7,25.6,42.7,31.6,23.3,93,73,40,29.82,29.68,8,2,13,0.00
2014-4-7,53.4,40.3,27.8,38.1,31.3,25.2,92,72,49,29.99,29.78,12,4,19,0.00
2014-4-8,61.2,42.4,22.9,38.8,30.7,20.1,91,66,38,30.05,29.71,6,2,13,0.00
2014-4-9,77.4,53.3,34.9,43.9,34.7,-99.9,83,56,27,29.71,29.41,15,5,22,0.00
2014-4-10,60.5,49.0,31.1,34.8,29.6,23.0,82,51,27,29.83,29.66,10,3,18,0.00
2014-4-11,62.8,47.4,29.2,38.7,28.5,-99.9,89,55,24,29.85,29.67,8,-11,13,0.01
2014-4-12,61.9,36.7,42.6,39.8,-8.1,-99.9,68,35,42,29.84,29.58,14,-324,26,0.00
2014-4-13,36.7,13.9,25.8,18.9,-50.9,-99.9,67,21,45,30.22,29.84,14,-574,23,0.00
2014-4-14,33.3,11.1,27.3,23.2,-57.2,-99.9,83,21,42,30.22,30.13,10,-631,15,0.00
2014-4-15,43.4,3.5,40.1,23.3,-89.7,-99.9,50,4,43,30.13,29.64,14,-915,18,0.00
2014-4-16,37.0,13.0,26.0,24.1,-52.0,-99.9,70,24,53,30.22,29.64,10,-601,16,0.02
2014-4-17,44.0,33.1,23.3,26.3,21.5,15.8,74,63,47,30.26,30.11,7,4,7,0.00
2014-4-18,68.1,48.4,32.2,44.5,33.0,22.1,68,56,40,30.11,29.46,17,11,28,0.00
2014-4-19,67.5,53.7,37.9,44.7,35.0,28.9,82,53,29,29.89,29.49,13,5,21,0.00
2014-4-20,75.7,55.1,32.6,41.8,35.0,29.2,89,53,24,29.92,29.76,10,4,17,0.00
2014-4-21,61.1,47.9,37.0,38.7,32.3,-99.9,73,57,34,30.10,29.91,9,3,18,0.00
2014-4-22,67.0,51.0,29.7,38.8,32.7,26.0,88,55,31,30.04,29.63,16,7,26,0.00
2014-4-23,57.8,52.0,45.0,48.0,41.0,36.9,84,67,54,29.64,29.41,22,12,32,0.02
2014-4-24,63.4,48.8,34.6,39.8,31.1,24.4,93,57,24,29.68,29.60,12,4,20,0.00
2014-4-25,69.9,54.4,33.7,43.3,36.4,27.7,82,55,30,29.72,29.64,12,4,16,0.00
2014-4-26,64.2,50.3,42.5,40.0,37.6,34.2,85,64,37,29.73,29.51,21,12,30,0.01
2014-4-27,45.5,40.9,37.0,39.4,37.4,34.9,93,87,67,29.56,29.38,19,11,30,0.68
2014-4-28,41.2,38.6,36.2,39.7,36.6,34.0,95,92,88,29.62,29.42,8,5,13,0.47
2014-4-29,51.7,40.9,32.4,37.5,31.5,-99.9,94,74,41,30.05,29.80,14,7,30,0.13
2014-4-30,50.1,40.2,31.7,33.8,29.5,25.7,82,67,49,30.05,29.99,14,8,22,0.00
2014-5-1,60.3,46.6,32.1,33.3,28.6,-99.9,83,54,31,30.01,29.77,14,6,22,0.00
2014-5-2,61.6,52.4,43.8,39.7,35.5,29.7,77,54,36,29.77,29.66,12,7,23,0.00
2014-5-3,51.4,47.4,44.6,41.0,37.9,31.8,75,70,47,29.88,29.75,9,2,9,0.00
2014-5-4,42.4,41.1,38.1,28.8,27.9,26.8,66,59,55,30.01,29.87,10,6,17,0.02
2014-5-5,63.6,51.1,36.1,42.7,37.2,30.6,81,60,45,29.94,29.72,11,5,18,0.00
2014-5-6,65.9,54.6,46.0,49.7,44.7,41.9,88,71,50,29.75,29.53,14,6,21,0.40
2014-5-7,54.3,49.2,42.0,49.7,42.8,-99.9,92,80,69,29.77,29.58,9,4,17,0.16
2014-5-8,44.2,42.3,40.2,41.1,39.0,35.0,94,88,71,29.81,29.70,12,6,20,0.17
2014-5-9,62.7,47.2,31.6,38.1,33.1,-99.9,92,63,33,29.75,29.64,4,1,9,0.00
2014-5-10,61.4,49.6,36.4,48.4,39.9,-99.9,90,71,56,29.67,29.49,11,3,14,0.01
2014-5-11,48.1,45.3,39.2,44.1,40.8,35.1,93,85,74,30.00,29.67,12,8,22,0.00
2014-5-12,50.6,44.2,37.6,35.7,32.0,28.7,89,64,46,30.08,29.95,16,11,30,0.07
2014-5-13,57.2,44.5,31.4,32.6,28.7,-99.9,82,57,32,30.16,30.07,13,5,22,0.00
2014-5-14,54.1,45.2,32.2,30.4,24.9,20.3,82,47,30,30.26,30.14,10,5,18,0.00
2014-5-15,59.5,43.6,24.7,32.4,26.7,21.9,91,57,28,30.25,30.03,4,1,9,0.00
2014-5-16,63.3,48.1,34.4,38.8,31.5,28.0,79,56,29,30.05,29.95,5,2,9,0.00
2014-5-17,68.6,52.3,32.9,42.7,35.9,30.8,94,60,28,29.96,29.85,6,1,10,0.00
2014-5-18,72.2,58.3,39.7,52.6,43.6,33.4,81,60,45,29.86,29.53,13,7,20,0.00
2014-5-19,64.6,58.7,54.1,55.2,50.0,45.0,84,74,52,29.53,29.38,14,7,27,0.10
2014-6-3,69.5,62.3,58.6,59.5,57.3,56.0,91,84,70,29.75,29.69,2,0,13,0.00
2014-6-4,79.2,66.6,52.8,61.3,56.9,51.4,96,74,45,29.79,29.63,6,2,12,0.01
2014-6-5,80.4,69.2,58.4,59.5,54.7,50.0,89,63,37,29.74,29.63,6,1,10,0.00
2014-6-6,60.5,52.4,47.7,53.7,46.9,43.4,89,82,71,30.05,29.74,4,1,10,0.18
2014-6-7,69.7,57.5,46.5,49.0,43.9,39.9,91,64,35,30.07,29.98,4,1,6,0.01
2014-6-8,67.2,56.2,45.0,50.6,47.0,42.0,91,73,47,30.00,29.91,8,2,14,0.00
2014-6-9,76.4,62.2,45.3,55.5,48.9,43.4,94,66,35,29.95,29.78,4,1,13,0.00
2014-6-10,77.5,64.3,49.7,59.1,53.3,46.4,91,69,45,29.78,29.62,5,1,12,0.00
2014-6-11,70.8,56.3,49.5,59.2,48.6,-99.9,94,84,60,29.87,29.59,8,-38,16,0.59
2014-6-12,70.7,61.4,46.8,47.0,44.9,41.8,93,58,36,30.03,29.88,6,2,14,0.00
2014-6-13,73.2,59.9,44.3,57.3,46.0,39.6,91,62,43,29.94,29.48,15,6,23,0.19
2014-6-14,67.9,59.6,53.2,60.6,56.0,50.6,95,88,62,29.58,29.35,14,2,22,0.25
2014-6-15,69.8,59.5,49.6,53.7,50.8,47.9,95,75,53,29.63,29.49,12,4,23,0.00
2014-6-16,75.4,63.1,49.3,61.4,54.5,45.6,90,74,57,29.64,29.49,13,3,19,0.00
2014-6-17,79.3,68.8,56.9,64.9,60.5,54.1,91,76,57,29.67,29.56,11,5,17,0.00
2014-6-18,76.1,66.4,60.5,67.6,61.8,57.6,95,85,73,29.72,29.52,11,4,21,1.14
2014-6-19,63.2,61.6,60.4,61.3,59.8,58.5,95,94,89,29.73,29.64,4,0,10,1.11
2014-6-24,72.2,66.2,59.6,60.0,55.1,-99.9,87,71,62,29.93,29.89,4,3,9,0.01
2014-6-25,76.2,65.6,54.5,62.7,56.8,-99.9,92,75,60,29.94,29.72,9,3,13,0.00
2014-6-26,84.7,73.7,62.9,69.6,65.3,59.2,92,76,57,29.74,29.47,9,4,13,0.02
2014-6-27,77.6,71.2,67.0,68.9,66.2,64.3,92,84,68,29.51,29.38,8,2,11,0.03
2014-6-28,70.9,65.4,61.7,65.1,61.6,-99.9,95,90,73,29.45,29.22,11,4,20,0.40
2014-6-29,78.7,68.1,58.3,60.1,53.1,-99.9,91,62,37,29.51,29.44,14,8,24,0.33
2014-6-30,69.5,63.5,57.7,58.0,52.3,48.8,90,68,53,29.55,29.45,16,9,29,0.10
2014-7-1,68.4,59.6,53.1,57.1,51.4,47.3,93,76,49,29.97,29.53,10,6,24,0.03
2014-7-2,58.7,49.7,45.2,52.5,46.6,43.0,93,89,79,30.08,29.99,2,0,5,0.00
2014-7-10,72.8,71.2,67.1,68.0,66.9,64.7,92,87,85,29.68,29.64,0,0,3,0.00
2014-7-11,86.6,78.6,62.5,71.0,64.0,58.4,95,63,43,29.90,29.67,7,3,12,0.00
2014-7-12,82.3,70.5,62.7,65.3,60.5,56.6,92,72,49,29.98,29.84,4,1,7,0.04
2014-7-13,75.9,65.2,55.2,57.9,51.8,44.0,92,66,33,29.95,29.88,7,2,14,0.00
2014-7-14,68.4,58.6,49.2,51.6,48.0,45.2,87,69,50,30.14,29.94,7,3,18,0.00
2014-7-15,75.2,62.1,47.0,55.8,50.3,44.5,93,68,41,30.15,29.95,4,1,15,0.00
2014-7-16,76.8,67.1,54.8,58.4,53.8,50.3,86,64,43,29.96,29.83,3,0,4,0.00
2014-7-17,83.2,68.3,52.6,63.2,56.8,49.4,89,69,44,29.85,29.67,4,1,10,0.00
2014-7-18,86.6,71.4,59.0,69.6,61.0,55.8,90,71,50,29.67,29.54,5,2,13,0.00
2014-7-19,80.7,68.7,54.6,65.9,58.6,52.0,92,72,51,29.75,29.56,7,2,12,0.00
2014-7-20,95.7,80.0,64.5,69.7,65.2,60.9,94,65,33,29.57,29.49,4,1,7,0.00
2014-7-21,87.8,75.2,63.8,77.3,70.1,61.6,94,85,67,29.75,29.47,8,2,16,1.26
2014-7-22,84.2,72.0,61.8,65.9,62.4,60.1,95,74,47,30.09,29.75,3,1,10,0.00
2014-7-23,81.0,71.5,62.4,63.2,60.6,58.3,89,70,51,30.12,29.94,8,4,13,0.00
2014-7-24,79.9,71.1,63.9,68.3,61.6,56.2,79,73,66,29.94,29.53,14,7,25,0.00
2014-7-25,84.5,72.9,61.5,67.4,58.7,51.0,94,66,33,29.68,29.49,5,2,17,0.00
2014-7-26,78.7,67.5,59.0,60.6,56.5,53.7,94,70,42,29.75,29.63,8,3,15,0.00
2014-7-27,70.0,62.2,54.9,57.4,54.5,51.3,92,77,58,30.16,29.85,6,3,23,0.00
2014-7-28,77.1,63.3,46.3,56.8,51.8,44.4,98,70,44,30.23,30.09,4,1,7,0.00
2014-7-29,82.1,66.8,49.6,59.4,54.5,47.4,93,67,43,30.11,29.97,3,0,6,0.00
2014-7-30,84.3,70.1,54.2,61.2,56.9,51.3,91,66,43,30.02,29.92,4,1,7,0.00
2014-7-31,86.7,72.8,58.6,62.7,57.7,54.5,88,62,36,29.95,29.85,3,1,5,0.00
2014-8-1,87.9,73.1,57.9,65.0,60.0,53.7,87,66,39,29.93,29.84,6,2,11,0.01
2014-8-2,86.9,73.0,58.5,65.5,60.7,56.0,93,68,43,29.96,29.89,3,1,6,0.01
2014-8-3,83.7,68.9,58.3,67.5,61.0,55.4,92,78,52,29.99,29.92,8,1,9,0.63
2014-8-4,70.2,62.7,57.5,60.3,56.5,52.5,93,81,57,30.02,29.96,5,1,9,0.34
2014-8-5,75.7,65.9,57.7,62.5,57.5,54.2,89,75,57,30.01,29.92,4,1,7,0.00
2014-8-6,77.6,69.8,62.8,62.7,60.0,58.4,89,72,53,29.91,29.84,8,3,13,0.00
2014-8-7,79.2,68.5,60.7,66.9,63.2,58.4,95,84,63,29.88,29.80,3,0,9,0.00
2014-8-8,78.7,69.1,60.7,66.5,63.2,58.9,95,83,61,29.88,29.81,5,1,11,0.00
2014-8-9,82.5,71.0,65.2,68.0,65.1,62.9,94,83,55,29.88,29.81,3,1,5,0.19
2014-8-10,77.7,68.3,56.7,63.8,57.6,50.5,95,72,42,30.07,29.86,6,2,15,0.00
2014-8-11,80.2,64.7,49.9,57.5,53.1,47.7,94,69,40,30.14,30.02,3,0,9,0.00
2014-8-12,87.0,69.8,51.7,62.9,56.0,48.6,90,65,37,30.05,29.86,3,1,6,0.00
2014-8-13,86.3,73.2,59.3,61.7,58.5,54.1,86,63,41,29.90,29.80,10,4,18,0.00
2014-8-14,85.3,73.2,66.7,68.0,63.6,59.8,85,73,52,29.83,29.66,11,5,22,0.00
2014-8-15,80.6,73.6,66.1,71.6,67.8,62.3,91,82,72,29.69,29.64,4,1,9,0.00
2014-8-16,74.6,70.6,68.0,70.1,67.8,66.0,95,91,83,29.78,29.64,3,1,6,0.36
2014-8-17,85.5,70.0,59.7,68.1,64.1,57.1,96,83,50,29.82,29.68,7,1,13,0.29
2014-8-18,80.7,68.7,58.3,65.4,60.4,56.3,94,77,53,29.70,29.63,7,2,14,0.00
2014-8-19,87.8,72.1,56.9,66.1,60.9,54.9,95,71,43,29.67,29.56,4,0,5,0.00
2014-8-20,83.2,46.1,65.2,70.9,41.4,61.5,94,48,63,29.57,29.48,11,3,19,1.58
2014-8-21,82.3,71.3,62.9,68.8,64.9,61.3,96,82,57,29.78,29.50,4,1,11,0.00
2014-8-22,75.0,67.6,64.2,67.5,64.0,61.2,96,88,70,29.91,29.77,5,1,11,0.40
2014-8-23,66.8,63.3,60.7,63.5,60.7,59.0,95,91,88,29.90,29.78,7,5,15,0.49
2014-8-25,59.8,55.7,46.7,49.2,47.1,43.9,90,73,64,30.06,29.88,9,4,15,0.00
2014-8-26,63.4,53.6,43.3,56.0,49.9,41.4,95,88,69,30.13,30.04,2,0,4,0.23
2014-8-27,75.2,63.6,50.8,62.4,57.3,49.1,95,81,61,30.08,29.88,4,1,7,0.00
2014-8-28,71.1,66.9,62.0,66.9,64.0,58.9,95,90,84,29.88,29.68,2,0,3,0.00
2014-8-29,75.8,65.7,55.0,64.7,60.2,52.4,97,83,61,29.82,29.65,6,2,14,0.00
2014-8-30,73.8,60.9,47.5,59.4,53.5,46.1,95,79,56,29.85,29.53,8,3,17,0.06
2014-8-31,73.4,65.1,57.7,64.0,60.0,54.5,95,84,63,29.62,29.43,7,2,12,0.15
2014-9-1,74.6,62.1,50.8,58.5,53.5,48.7,94,76,46,29.74,29.59,4,1,10,0.07
2014-9-2,80.6,63.8,49.1,59.1,52.4,46.3,91,70,38,29.75,29.61,6,2,11,0.00
2014-9-3,81.8,67.7,51.4,67.8,59.6,48.0,90,76,59,29.63,29.38,8,3,13,0.00
2014-9-4,68.3,63.0,54.1,65.2,54.7,48.3,94,76,53,29.97,29.38,8,4,17,0.00
2014-9-5,71.5,57.2,43.0,51.0,46.9,41.1,94,72,41,30.15,29.97,4,2,12,0.00
2014-9-6,80.4,62.3,45.3,57.9,49.7,41.4,89,66,39,30.12,29.91,6,1,11,0.00
2014-9-7,84.9,65.7,49.3,61.7,54.7,46.6,91,70,41,29.92,29.59,4,1,10,0.00
2014-9-8,89.0,69.1,52.8,63.6,57.1,50.8,94,70,35,29.66,29.53,5,1,14,0.00
2014-9-9,59.1,49.9,43.8,54.7,47.2,41.6,93,90,85,29.94,29.64,9,5,17,0.22
2014-9-10,52.4,44.9,37.3,41.9,38.1,33.4,92,78,53,30.25,29.94,6,4,15,0.15
2014-9-11,51.6,43.1,36.2,41.1,36.0,33.3,93,78,51,30.43,30.24,5,2,10,0.01
2014-9-12,57.2,46.3,36.1,38.9,34.3,30.0,89,66,39,30.44,30.17,5,1,12,0.00
2014-9-13,65.0,47.2,33.7,46.4,37.7,30.5,90,72,42,30.17,29.93,6,2,12,0.00
2014-9-14,58.2,46.5,34.9,42.7,38.2,32.4,92,75,47,30.14,30.03,3,1,7,0.00
2014-9-15,66.8,50.5,32.0,43.9,37.7,29.7,94,66,35,30.21,30.05,3,1,9,0.00
2014-9-16,76.3,55.4,38.2,52.3,43.7,34.1,86,68,40,30.05,29.80,3,1,4,0.00
2014-9-17,74.1,57.8,39.9,57.8,46.6,38.0,94,70,39,29.87,29.80,4,1,7,0.00
2014-9-18,82.1,64.8,48.5,63.5,55.0,44.1,91,72,47,29.87,29.53,8,3,16,0.00
2014-9-19,84.1,71.1,61.3,64.8,58.0,51.7,92,67,34,29.65,29.46,7,2,12,0.01
2014-9-20,72.9,60.6,49.6,55.9,48.0,39.9,93,66,37,30.00,29.65,11,2,19,0.00
2014-9-21,72.6,56.7,43.0,50.0,44.2,39.1,87,65,38,30.18,30.00,4,1,7,0.00
2014-9-22,79.6,60.9,42.6,51.9,46.7,39.3,90,64,34,30.11,29.82,10,4,22,0.00
2014-9-23,62.5,59.0,56.5,57.4,54.5,51.1,93,85,67,29.83,29.79,8,4,14,0.01
2014-9-24,85.9,64.7,55.7,63.8,57.0,54.6,96,80,38,29.90,29.82,3,1,5,0.00
2014-9-25,89.1,69.7,52.9,63.2,57.5,51.1,94,70,33,29.93,29.83,6,2,14,0.00
2014-9-26,89.2,74.0,61.8,64.5,61.2,57.7,89,67,36,29.83,29.66,12,5,20,0.00
2014-9-27,83.6,70.7,59.0,62.2,58.3,54.1,84,67,46,29.81,29.69,6,2,11,0.00
2014-9-28,64.1,56.3,49.7,57.1,51.1,45.2,91,83,75,30.11,29.80,9,4,17,0.00
2014-9-29,59.0,51.9,46.1,49.6,46.6,43.6,92,83,70,30.11,29.82,8,5,12,0.00
2014-9-30,62.1,55.2,51.6,59.0,51.7,48.1,93,88,82,29.82,29.26,15,8,21,0.23
2014-10-1,60.2,55.2,49.6,52.7,49.5,45.7,92,82,67,29.75,29.39,10,4,16,0.00
2014-10-2,65.6,50.9,40.1,47.5,41.3,30.6,94,72,40,29.97,29.71,11,4,19,0.00
2014-10-3,40.7,38.7,37.3,31.7,26.3,21.5,72,61,48,30.06,29.97,11,8,23,0.00
2014-10-4,47.8,42.9,29.6,34.7,27.7,22.6,82,56,38,29.98,29.71,5,1,7,0.00
2014-10-5,58.4,45.9,37.7,47.6,37.9,31.7,86,74,56,29.71,29.55,13,4,20,0.02
2014-10-6,60.9,48.4,34.9,43.1,38.7,32.2,92,71,46,29.62,29.43,11,5,18,0.00
2014-10-7,58.5,49.1,38.1,42.2,36.6,28.8,81,64,35,29.88,29.46,10,5,20,0.00
2014-10-8,55.9,44.4,32.7,35.6,30.6,27.2,82,60,39,30.07,29.88,4,1,8,0.01
2014-10-9,55.6,44.7,31.9,37.8,33.4,26.7,90,67,40,30.22,30.06,4,1,9,0.06
2014-10-10,57.3,41.4,24.5,36.1,28.6,22.0,92,64,35,30.26,30.10,2,0,4,0.01
2014-10-11,72.5,53.0,33.0,46.1,37.2,26.9,80,57,35,30.10,29.52,9,5,16,0.00
2014-10-12,54.6,48.9,44.3,50.1,43.7,38.8,96,83,60,29.75,29.42,9,3,18,0.43
2014-10-13,63.7,48.5,37.1,44.4,38.6,33.9,90,71,38,29.92,29.75,8,2,15,0.00
2014-10-14,66.2,45.3,30.3,44.2,34.6,28.3,94,71,31,29.98,29.86,4,0,10,0.00
2014-10-15,76.7,56.3,40.6,44.5,38.9,32.8,75,55,31,29.86,29.42,13,6,19,0.00
2014-10-16,59.0,53.3,47.1,46.3,43.1,40.2,77,68,54,29.79,29.35,19,9,25,0.00
2014-10-17,50.4,46.1,42.6,41.9,38.7,37.0,82,75,65,30.16,29.79,12,6,19,0.00
2014-10-18,56.2,45.2,39.5,41.6,38.1,35.6,89,77,57,30.15,29.81,11,4,14,0.00
2014-10-19,71.6,51.0,35.8,47.0,39.5,33.7,94,69,35,29.94,29.79,9,2,15,0.00
2014-10-20,69.7,50.3,31.9,46.6,36.6,30.0,93,65,33,30.00,29.85,6,2,12,0.00
2014-10-21,82.5,63.2,47.5,49.8,41.3,36.1,68,47,25,29.85,29.57,12,9,18,0.00
2014-10-22,64.0,55.7,47.1,50.3,44.8,36.1,90,68,46,29.83,29.57,10,4,15,0.13
2014-10-23,70.4,29.0,39.5,42.9,19.2,34.4,82,25,29,29.84,29.71,5,1,10,0.00
2014-10-24,70.7,33.3,49.1,44.7,21.4,34.9,71,24,33,29.93,29.68,7,2,14,0.00
2014-10-25,62.2,49.4,36.1,36.9,33.8,30.3,82,57,33,30.07,29.84,4,1,7,0.00
2014-10-26,70.2,53.9,42.4,45.3,37.9,31.7,76,56,37,29.83,29.39,17,6,22,0.00
2014-10-27,51.0,44.6,38.5,38.0,33.5,28.9,85,66,46,29.70,29.48,16,6,30,0.01
2014-10-28,40.8,37.6,34.0,34.9,32.7,30.4,90,83,75,30.09,29.71,12,7,22,0.06
2014-10-29,50.8,39.8,25.3,40.7,33.0,22.2,91,77,50,30.09,29.89,8,2,17,0.07
2014-10-30,39.8,33.6,21.2,37.4,30.0,18.2,93,87,78,30.55,29.90,8,4,13,0.00
2014-10-31,38.7,26.1,13.2,22.5,16.2,10.3,90,69,38,30.57,30.13,14,6,24,0.00
2014-11-1,47.6,38.0,30.2,27.5,21.9,17.4,61,53,40,30.12,29.69,12,8,21,0.00
2014-11-2,63.2,45.9,36.3,40.6,32.0,24.2,78,59,41,29.71,29.57,9,4,13,0.00
2014-11-3,45.0,40.3,31.9,35.0,32.1,27.1,88,73,61,29.93,29.71,10,5,21,0.00
2014-11-4,49.0,38.3,26.6,32.6,29.0,23.2,89,70,45,29.99,29.83,8,3,13,0.00
2014-11-5,46.9,41.0,28.8,41.3,35.2,25.6,92,80,66,30.22,29.78,15,6,25,0.06
2014-11-6,49.3,35.2,20.7,34.5,26.9,18.5,92,74,46,30.31,29.88,7,1,12,0.07
2014-11-7,60.0,43.2,36.4,45.7,34.7,25.4,89,72,57,30.11,29.62,18,9,28,0.00
2014-11-8,40.9,34.0,26.0,30.5,25.8,20.6,86,72,62,30.14,29.74,11,3,17,0.00
2014-11-9,32.2,27.7,22.7,29.3,22.6,17.7,91,81,63,29.82,29.67,6,3,13,0.04
2014-11-10,22.7,18.7,13.0,20.2,14.4,7.7,90,83,73,30.29,29.68,10,6,17,0.00
2014-11-11,15.0,11.1,5.1,9.1,5.8,1.1,86,79,71,30.48,30.29,8,4,13,0.00
2014-11-12,18.1,13.9,5.9,13.3,9.7,1.8,87,83,78,30.64,30.48,12,6,25,0.00
2014-11-13,13.1,4.6,-5.4,5.7,-0.4,-9.5,86,80,69,30.65,30.47,5,2,8,0.00
2014-11-14,15.6,2.4,-11.8,8.4,-2.6,-16.5,92,79,68,30.48,30.29,6,2,10,0.00
2014-11-15,10.7,5.6,-0.9,5.4,0.9,-6.1,85,81,74,30.35,30.21,8,4,17,0.00
2014-11-16,19.3,9.8,-2.7,15.2,4.1,-7.6,88,77,65,30.22,29.90,13,6,21,0.00
2014-11-17,14.9,9.1,0.9,9.7,3.2,-3.8,83,76,66,30.26,30.16,10,5,18,0.00
2014-11-18,30.2,17.6,5.2,23.9,11.9,0.4,86,78,72,30.16,29.73,15,6,25,0.00
2014-11-19,23.0,18.2,12.7,14.6,11.7,6.9,83,75,65,30.12,29.94,13,6,17,0.00
2014-11-20,19.7,14.1,6.5,17.0,9.0,3.0,89,80,68,30.17,30.00,8,2,10,0.00
2014-11-21,37.5,24.9,10.4,30.0,19.8,7.0,89,81,72,29.99,29.72,9,2,12,0.04
2014-11-22,41.2,30.8,22.5,33.8,25.9,19.3,92,82,67,29.72,29.31,6,2,10,0.08
2014-11-23,40.2,29.4,17.8,36.0,23.5,12.4,92,79,65,29.66,29.36,16,8,25,0.07
2014-11-24,23.3,16.7,10.5,15.4,8.9,4.1,85,72,44,30.05,29.65,11,6,20,0.00
2014-11-25,32.8,27.5,18.0,31.3,24.6,14.3,94,89,82,30.03,29.72,10,2,19,0.00
2014-11-26,17.7,4.6,-8.9,14.0,-0.1,-13.4,85,81,74,30.56,30.03,7,2,18,0.00
2014-11-27,12.3,1.3,-11.8,8.4,-3.0,-16.5,85,81,77,30.56,29.99,11,4,19,0.00
2014-11-28,22.1,15.5,9.2,17.2,11.5,5.6,87,84,80,29.99,29.47,8,4,16,0.00
2014-11-29,23.2,14.9,2.2,19.9,10.1,-5.6,92,81,69,29.97,29.38,14,6,16,0.00
2014-11-30,9.4,2.1,-3.8,-0.6,-5.6,-10.3,74,69,62,30.66,29.96,10,5,18,0.01
2014-12-1,13.6,1.1,-14.8,5.4,-5.4,-19.9,80,74,67,30.70,30.00,15,6,22,0.00
2014-12-2,27.0,18.0,9.9,16.0,10.9,3.8,87,74,60,30.15,29.95,4,1,9,0.00
2014-12-3,23.6,15.6,3.4,16.5,10.4,-0.3,86,80,73,30.28,30.03,7,2,10,0.00
2014-12-4,27.9,19.9,7.0,22.9,14.2,3.4,92,78,69,30.03,29.90,6,1,8,0.00
2014-12-5,28.1,20.6,9.9,23.1,15.4,6.3,88,80,66,30.49,29.94,7,1,12,0.00
2014-12-6,28.8,23.4,14.8,22.8,18.0,11.1,85,80,70,30.54,30.10,12,6,20,0.00
2014-12-7,47.4,33.7,25.6,36.5,28.2,22.0,88,81,64,30.09,29.91,9,4,20,0.01
2014-12-8,30.7,25.1,10.6,26.3,20.9,7.5,88,84,77,30.39,30.07,11,4,20,0.00
2014-12-9,27.4,18.2,9.0,21.7,14.9,5.9,89,86,79,30.40,30.15,10,4,18,0.00
2014-12-10,34.1,23.4,18.0,28.6,20.8,15.3,98,89,80,30.16,30.02,5,3,13,0.00
2014-12-11,32.9,27.0,20.4,31.1,25.0,18.0,100,92,90,30.04,29.90,9,5,16,0.00
2014-12-12,44.3,32.6,25.6,35.3,28.8,23.1,91,86,70,29.91,29.80,9,3,14,0.00
2014-12-13,44.4,34.2,28.1,38.0,31.1,25.5,94,88,77,29.80,29.63,7,2,16,0.01
2014-12-14,30.6,28.9,26.9,29.1,27.4,25.4,95,94,93,29.90,29.63,9,5,17,0.00
2014-12-15,28.4,23.9,19.5,26.6,21.1,15.2,93,89,83,30.29,29.90,12,8,28,0.00
2014-12-16,19.7,17.6,10.0,16.7,12.7,6.6,89,81,75,30.39,30.28,9,3,14,0.00
2014-12-17,18.6,14.4,7.0,12.3,9.8,3.7,88,82,76,30.36,30.23,7,3,11,0.00
2014-12-18,26.7,20.3,13.8,24.7,17.9,9.8,92,90,81,30.23,30.05,7,3,12,0.00
2014-12-19,34.1,24.0,18.2,28.6,21.1,15.8,92,89,79,30.05,29.93,4,1,8,0.00
2014-12-20,31.9,17.8,14.2,27.7,15.6,11.6,92,73,84,29.97,29.81,5,2,11,0.00
2014-12-21,36.9,10.1,24.5,31.3,8.9,22.2,93,27,79,29.81,29.40,8,2,13,0.00
2014-12-22,31.4,16.3,27.6,30.1,15.5,26.1,95,51,94,29.70,29.39,6,2,12,0.00
2014-12-23,31.5,28.4,24.9,30.2,26.2,22.1,95,92,87,30.09,29.70,8,6,15,0.00
2014-12-24,28.4,25.8,23.4,24.4,23.0,21.2,93,89,82,30.02,29.45,6,2,10,0.00
2014-12-25,29.9,26.4,23.9,26.2,23.3,21.0,93,88,83,30.00,29.48,8,3,14,0.00
2014-12-26,24.2,15.2,-1.9,21.2,11.1,-5.5,89,84,78,30.22,30.00,6,3,13,0.00
2014-12-27,26.7,10.8,-4.1,20.1,7.0,-7.7,99,84,75,30.23,30.08,6,1,10,0.00
2014-12-28,15.3,10.7,0.6,12.6,6.9,-4.2,89,84,79,30.50,30.08,6,2,10,0.00
2014-12-29,0.6,-5.2,-10.8,-4.1,-10.4,-15.9,83,78,72,30.92,30.50,4,3,9,0.00
2014-12-30,-2.5,-7.4,-12.3,-7.8,-12.6,-16.8,81,78,73,30.98,30.58,6,3,10,0.00
2014-12-31,23.2,10.8,-4.7,17.8,4.5,-9.8,83,75,68,30.58,29.99,11,6,18,0.00
2015-1-1,29.4,26.3,23.1,24.3,20.9,16.6,89,80,71,30.07,29.88,10,4,14,0.00
2015-1-2,30.9,26.9,22.3,24.6,22.2,19.3,92,82,74,30.06,29.62,9,3,13,0.01